createdAt,value
2019-02-23T00:00:05.162Z,6.50
2019-02-23T00:02:33.762Z,7.23
2019-02-23T00:05:02.337Z,7.13
2019-02-23T00:07:30.634Z,6.73
2019-02-23T00:09:58.885Z,7.13
2019-02-23T00:12:27.423Z,6.67
2019-02-23T00:14:55.753Z,6.93
2019-02-23T00:17:24.094Z,7.27
2019-02-23T00:19:52.365Z,6.93
2019-02-23T00:22:20.640Z,6.60
2019-02-23T00:24:48.898Z,7.17
2019-02-23T00:27:17.173Z,6.97
2019-02-23T00:29:45.416Z,7.13
2019-02-23T00:32:13.716Z,7.30
2019-02-23T00:34:42.198Z,7.20
2019-02-23T00:37:10.475Z,7.40
2019-02-23T00:39:39.060Z,7.40
2019-02-23T00:42:07.404Z,7.03
2019-02-23T00:44:35.682Z,7.10
2019-02-23T00:47:03.959Z,7.67
2019-02-23T00:49:36.295Z,7.63
2019-02-23T00:52:02.674Z,7.17
2019-02-23T00:54:30.918Z,7.97
2019-02-23T00:56:59.176Z,6.93
2019-02-23T00:59:27.441Z,7.37
2019-02-23T01:01:55.748Z,7.30
2019-02-23T01:04:24.398Z,7.70
2019-02-23T01:06:53.044Z,7.40
2019-02-23T01:09:21.368Z,7.80
2019-02-23T01:11:51.760Z,8.03
2019-02-23T01:14:20.048Z,7.70
2019-02-23T01:16:48.328Z,7.17
2019-02-23T01:19:17.027Z,8.03
2019-02-23T01:21:45.321Z,7.63
2019-02-23T01:24:13.563Z,7.43
2019-02-23T01:26:41.856Z,7.47
2019-02-23T01:29:10.107Z,7.83
2019-02-23T01:31:38.596Z,8.37
2019-02-23T01:34:06.874Z,8.27
2019-02-23T01:36:35.523Z,8.30
2019-02-23T01:39:04.815Z,7.97
2019-02-23T01:41:33.432Z,8.37
2019-02-23T01:44:01.762Z,8.23
2019-02-23T01:46:30.036Z,8.57
2019-02-23T01:48:58.308Z,8.50
2019-02-23T01:51:26.938Z,8.83
2019-02-23T01:53:55.178Z,8.73
2019-02-23T01:56:23.450Z,8.63
2019-02-23T01:58:52.065Z,8.03
2019-02-23T02:01:20.338Z,8.60
2019-02-23T02:03:48.922Z,8.13
2019-02-23T02:06:17.527Z,7.87
2019-02-23T02:08:46.189Z,8.60
2019-02-23T02:11:14.735Z,8.50
2019-02-23T02:13:42.986Z,8.00
2019-02-23T02:16:11.555Z,8.53
2019-02-23T02:18:39.867Z,8.77
2019-02-23T02:21:08.124Z,8.50
2019-02-23T02:23:36.418Z,9.10
2019-02-23T02:26:04.667Z,8.67
2019-02-23T02:28:33.242Z,8.80
2019-02-23T02:31:01.517Z,9.17
2019-02-23T02:33:29.868Z,9.20
2019-02-23T02:35:58.158Z,9.27
2019-02-23T02:38:26.670Z,8.80
2019-02-23T02:40:55.043Z,9.07
2019-02-23T02:43:23.429Z,9.13
2019-02-23T02:45:51.694Z,9.00
2019-02-23T02:48:20.282Z,8.70
2019-02-23T02:50:48.541Z,9.30
2019-02-23T02:53:16.808Z,8.77
2019-02-23T02:55:45.065Z,8.77
2019-02-23T02:58:13.400Z,8.87
2019-02-23T03:00:42.048Z,9.53
2019-02-23T03:03:11.328Z,9.40
2019-02-23T03:05:39.645Z,8.70
2019-02-23T03:08:09.667Z,10.00
2019-02-23T03:10:37.998Z,9.00
2019-02-23T03:13:06.390Z,8.97
2019-02-23T03:15:34.980Z,8.90
2019-02-23T03:18:03.296Z,8.83
2019-02-23T03:20:36.930Z,9.30
2019-02-23T03:23:05.109Z,9.73
2019-02-23T03:25:33.709Z,10.47
2019-02-23T03:28:02.319Z,9.63
2019-02-23T03:30:30.627Z,10.10
2019-02-23T03:32:58.898Z,9.90
2019-02-23T03:35:27.161Z,9.07
2019-02-23T03:37:55.438Z,9.07
2019-02-23T03:40:28.335Z,9.40
2019-02-23T03:42:56.680Z,9.53
2019-02-23T03:45:25.247Z,9.20
2019-02-23T03:47:53.509Z,9.27
2019-02-23T03:50:22.022Z,9.73
2019-02-23T03:52:50.350Z,10.03
2019-02-23T03:55:19.274Z,8.70
2019-02-23T03:57:47.573Z,9.10
2019-02-23T04:00:16.948Z,9.60
2019-02-23T04:02:45.211Z,9.57
2019-02-23T04:05:13.712Z,9.40
2019-02-23T04:07:41.992Z,9.43
2019-02-23T04:10:10.267Z,8.80
2019-02-23T04:12:38.624Z,10.03
2019-02-23T04:15:08.518Z,9.80
2019-02-23T04:17:36.905Z,9.60
2019-02-23T04:20:07.370Z,8.77
2019-02-23T04:22:35.646Z,9.53
2019-02-23T04:25:05.766Z,8.73
2019-02-23T04:27:34.377Z,9.57
2019-02-23T04:30:02.913Z,9.73
2019-02-23T04:32:31.685Z,10.13
2019-02-23T04:35:00.284Z,9.37
2019-02-23T04:37:28.994Z,9.97
2019-02-23T04:39:57.361Z,10.00
2019-02-23T04:42:25.637Z,10.03
2019-02-23T04:44:53.944Z,10.20
2019-02-23T04:47:22.205Z,9.37
2019-02-23T04:49:53.402Z,10.07
2019-02-23T04:52:22.239Z,11.00
2019-02-23T04:54:51.142Z,10.47
2019-02-23T04:57:19.462Z,10.77
2019-02-23T04:59:47.725Z,9.70
2019-02-23T05:02:16.037Z,9.37
2019-02-23T05:04:44.300Z,9.17
2019-02-23T05:07:12.673Z,10.13
2019-02-23T05:09:41.082Z,10.50
2019-02-23T05:12:09.453Z,10.47
2019-02-23T05:14:37.782Z,10.63
2019-02-23T05:17:06.431Z,10.17
2019-02-23T05:19:34.838Z,10.47
2019-02-23T05:22:03.483Z,10.03
2019-02-23T05:24:32.195Z,9.87
2019-02-23T05:27:00.526Z,10.80
2019-02-23T05:29:28.828Z,11.37
2019-02-23T05:31:57.140Z,11.73
2019-02-23T05:34:25.518Z,11.17
2019-02-23T05:36:54.012Z,10.20
2019-02-23T05:39:22.646Z,11.27
2019-02-23T05:41:50.922Z,12.00
2019-02-23T05:44:19.374Z,11.17
2019-02-23T05:46:47.988Z,10.60
2019-02-23T05:49:16.338Z,11.43
2019-02-23T05:51:44.591Z,11.17
2019-02-23T05:54:12.888Z,10.73
2019-02-23T05:56:41.497Z,10.73
2019-02-23T05:59:09.778Z,11.03
2019-02-23T06:01:38.029Z,11.13
2019-02-23T06:04:06.297Z,10.47
2019-02-23T06:06:34.579Z,11.33
2019-02-23T06:09:03.818Z,12.00
2019-02-23T06:11:32.151Z,11.50
2019-02-23T06:14:00.429Z,12.73
2019-02-23T06:16:29.032Z,11.93
2019-02-23T06:18:57.354Z,11.83
2019-02-23T06:21:25.652Z,11.23
2019-02-23T06:23:53.962Z,11.37
2019-02-23T06:26:22.293Z,11.63
2019-02-23T06:28:50.618Z,12.60
2019-02-23T06:31:18.891Z,11.93
2019-02-23T06:33:47.160Z,12.63
2019-02-23T06:36:15.743Z,13.20
2019-02-23T06:38:44.094Z,11.97
2019-02-23T06:41:12.710Z,12.93
2019-02-23T06:43:41.019Z,12.33
2019-02-23T06:46:09.569Z,11.73
2019-02-23T06:48:37.924Z,12.80
2019-02-23T06:51:06.191Z,12.10
2019-02-23T06:53:34.496Z,11.83
2019-02-23T06:56:03.121Z,13.00
2019-02-23T06:58:31.438Z,12.03
2019-02-23T07:00:59.712Z,12.53
2019-02-23T07:03:28.605Z,12.23
2019-02-23T07:05:57.208Z,13.10
2019-02-23T07:08:25.530Z,13.90
2019-02-23T07:10:54.187Z,13.37
2019-02-23T07:13:22.946Z,13.10
2019-02-23T07:15:51.221Z,14.00
2019-02-23T07:18:20.045Z,12.63
2019-02-23T07:20:48.398Z,12.43
2019-02-23T07:23:17.003Z,12.03
2019-02-23T07:25:45.337Z,13.43
2019-02-23T07:28:13.595Z,13.43
2019-02-23T07:30:41.877Z,13.00
2019-02-23T07:33:10.130Z,12.20
2019-02-23T07:35:38.526Z,12.80
2019-02-23T07:38:07.032Z,12.07
2019-02-23T07:40:35.486Z,12.93
2019-02-23T07:43:04.417Z,12.77
2019-02-23T07:45:33.104Z,13.67
2019-02-23T07:48:01.648Z,12.90
2019-02-23T07:50:30.382Z,13.17
2019-02-23T07:52:58.649Z,13.50
2019-02-23T07:55:26.977Z,13.30
2019-02-23T07:57:55.233Z,13.03
2019-02-23T08:00:23.802Z,12.07
2019-02-23T08:02:52.366Z,12.93
2019-02-23T08:05:20.654Z,12.43
2019-02-23T08:07:49.324Z,12.30
2019-02-23T08:10:18.394Z,13.53
2019-02-23T08:12:47.135Z,13.23
2019-02-23T08:15:15.901Z,13.00
2019-02-23T08:17:44.253Z,12.23
2019-02-23T08:20:15.647Z,12.60
2019-02-23T08:22:44.334Z,13.47
2019-02-23T08:25:14.260Z,12.93
2019-02-23T08:27:42.611Z,13.20
2019-02-23T08:30:13.717Z,12.73
2019-02-23T08:32:42.084Z,13.07
2019-02-23T08:35:10.743Z,12.10
2019-02-23T08:37:41.542Z,13.27
2019-02-23T08:40:14.901Z,12.60
2019-02-23T08:42:43.472Z,13.67
2019-02-23T08:45:11.774Z,12.33
2019-02-23T08:47:40.116Z,13.03
2019-02-23T08:50:11.258Z,13.93
2019-02-23T08:52:48.430Z,14.47
2019-02-23T08:55:10.374Z,13.70
2019-02-23T08:57:38.938Z,15.03
2019-02-23T09:00:15.871Z,13.87
2019-02-23T09:02:44.295Z,13.57
2019-02-23T09:05:13.589Z,13.27
2019-02-23T09:07:41.864Z,13.17
2019-02-23T09:10:13.003Z,13.33
2019-02-23T09:12:41.741Z,12.70
2019-02-23T09:15:10.868Z,12.47
2019-02-23T09:17:39.216Z,13.40
2019-02-23T09:20:10.380Z,12.53
2019-02-23T09:22:38.661Z,12.87
2019-02-23T09:25:08.763Z,13.03
2019-02-23T09:27:37.357Z,13.47
2019-02-23T09:30:08.995Z,13.00
2019-02-23T09:32:37.281Z,14.83
2019-02-23T09:35:05.946Z,13.60
2019-02-23T09:37:36.882Z,12.80
2019-02-23T09:40:16.422Z,12.37
2019-02-23T09:42:46.264Z,12.20
2019-02-23T09:45:14.624Z,14.07
2019-02-23T09:47:43.067Z,12.97
2019-02-23T09:50:11.331Z,13.20
2019-02-23T09:52:39.625Z,13.20
2019-02-23T09:55:09.155Z,12.83
2019-02-23T09:57:37.493Z,12.53
2019-02-23T10:00:11.863Z,12.60
2019-02-23T10:02:40.219Z,13.00
2019-02-23T10:05:09.755Z,13.43
2019-02-23T10:07:38.023Z,12.37
2019-02-23T10:10:10.752Z,12.07
2019-02-23T10:12:39.111Z,12.23
2019-02-23T10:15:09.535Z,12.23
2019-02-23T10:17:37.827Z,11.70
2019-02-23T10:20:11.446Z,11.77
2019-02-23T10:22:39.962Z,12.43
2019-02-23T10:25:08.435Z,11.83
2019-02-23T10:27:37.135Z,12.70
2019-02-23T10:30:13.461Z,12.67
2019-02-23T10:32:42.229Z,13.43
2019-02-23T10:35:12.141Z,12.40
2019-02-23T10:37:40.694Z,12.60
2019-02-23T10:40:11.219Z,12.73
2019-02-23T10:42:39.627Z,12.47
2019-02-23T10:45:12.490Z,12.00
2019-02-23T10:47:41.093Z,12.40
2019-02-23T10:50:13.032Z,19.80
2019-02-23T10:52:41.657Z,13.13
2019-02-23T10:55:12.305Z,12.00
2019-02-23T10:57:40.589Z,13.03
2019-02-23T11:00:13.649Z,12.37
2019-02-23T11:02:41.957Z,12.43
2019-02-23T11:05:11.048Z,12.87
2019-02-23T11:07:39.813Z,12.47
2019-02-23T11:10:09.245Z,12.07
2019-02-23T11:12:37.591Z,11.47
2019-02-23T11:15:09.496Z,11.50
2019-02-23T11:17:37.939Z,12.30
2019-02-23T11:20:07.986Z,12.83
2019-02-23T11:22:36.334Z,11.80
2019-02-23T11:25:07.366Z,10.97
2019-02-23T11:27:36.019Z,11.00
2019-02-23T11:30:07.116Z,10.87
2019-02-23T11:32:35.682Z,14.20
2019-02-23T11:35:04.101Z,31.93
2019-02-23T11:37:32.922Z,13.50
2019-02-23T11:40:01.192Z,12.20
2019-02-23T11:42:29.595Z,16.07
2019-02-23T11:44:58.040Z,11.73
2019-02-23T11:47:26.444Z,11.30
2019-02-23T11:49:54.877Z,11.83
2019-02-23T11:52:23.353Z,11.93
2019-02-23T11:54:52.062Z,10.10
2019-02-23T11:57:20.833Z,10.70
2019-02-23T11:59:49.159Z,10.30
2019-02-23T12:02:17.564Z,13.10
2019-02-23T12:04:46.123Z,11.63
2019-02-23T12:07:14.431Z,10.87
2019-02-23T12:09:42.834Z,11.37
2019-02-23T12:12:11.195Z,9.73
2019-02-23T12:14:39.456Z,10.43
2019-02-23T12:17:07.914Z,10.93
2019-02-23T12:19:36.187Z,11.80
2019-02-23T12:22:12.105Z,9.90
2019-02-23T12:24:34.911Z,9.00
2019-02-23T12:27:03.446Z,8.40
2019-02-23T12:29:32.015Z,8.87
2019-02-23T12:32:00.723Z,8.93
2019-02-23T12:34:29.166Z,9.00
2019-02-23T12:36:57.753Z,9.03
2019-02-23T12:39:26.312Z,20.97
2019-02-23T12:41:54.670Z,10.20
2019-02-23T12:44:22.963Z,9.63
2019-02-23T12:46:51.508Z,9.23
2019-02-23T12:49:20.034Z,9.00
2019-02-23T12:51:48.406Z,10.07
2019-02-23T12:54:17.245Z,9.27
2019-02-23T12:56:45.931Z,9.63
2019-02-23T12:59:14.538Z,9.33
2019-02-23T13:01:42.883Z,9.90
2019-02-23T13:04:11.285Z,9.37
2019-02-23T13:06:39.558Z,9.73
2019-02-23T13:09:22.121Z,9.37
2019-02-23T13:11:56.139Z,9.57
2019-02-23T13:14:31.256Z,9.20
2019-02-23T13:17:14.383Z,9.13
2019-02-23T13:20:05.487Z,8.67
2019-02-23T13:22:40.148Z,15.67
2019-02-23T13:25:11.945Z,10.53
2019-02-23T13:27:46.151Z,9.70
2019-02-23T13:30:32.542Z,9.43
2019-02-23T13:33:13.163Z,8.90
2019-02-23T13:35:50.428Z,9.40
2019-02-23T13:38:53.929Z,8.57
2019-02-23T13:41:31.023Z,8.70
2019-02-23T13:44:14.470Z,8.80
2019-02-23T13:46:51.954Z,8.30
2019-02-23T13:49:45.897Z,8.70
2019-02-23T13:52:17.685Z,7.90
2019-02-23T13:54:57.778Z,8.43
2019-02-23T13:57:38.018Z,9.20
2019-02-23T14:00:15.595Z,8.90
2019-02-23T14:02:50.105Z,9.50
2019-02-23T14:05:50.038Z,8.93
2019-02-23T14:08:40.923Z,8.20
2019-02-23T14:11:12.509Z,8.40
2019-02-23T14:13:49.969Z,8.40
2019-02-23T14:16:36.714Z,7.83
2019-02-23T14:19:11.366Z,8.20
2019-02-23T14:22:00.611Z,8.83
2019-02-23T14:24:50.234Z,8.80
2019-02-23T14:27:35.295Z,8.20
2019-02-23T14:30:40.717Z,7.83
2019-02-23T14:33:30.635Z,7.10
2019-02-23T14:36:17.190Z,7.20
2019-02-23T14:39:13.188Z,6.33
2019-02-23T14:42:16.022Z,7.13
2019-02-23T14:45:14.790Z,6.90
2019-02-23T14:48:03.515Z,6.50
2019-02-23T14:51:00.468Z,6.93
2019-02-23T14:53:54.705Z,6.57
2019-02-23T14:56:51.995Z,7.30
2019-02-23T14:59:56.934Z,7.43
2019-02-23T15:02:31.497Z,7.80
2019-02-23T15:05:23.970Z,7.87
2019-02-23T15:08:13.001Z,7.23
2019-02-23T15:11:01.104Z,6.83
2019-02-23T15:13:44.273Z,6.13
2019-02-23T15:16:32.934Z,5.80
2019-02-23T15:19:37.615Z,6.03
2019-02-23T15:22:40.723Z,5.67
2019-02-23T15:25:24.282Z,6.87
2019-02-23T15:29:22.904Z,6.17
2019-02-23T15:31:14.191Z,6.73
2019-02-23T15:33:57.418Z,10.77
2019-02-23T15:36:29.055Z,6.77
2019-02-23T15:39:06.700Z,7.03
2019-02-23T15:41:50.235Z,6.40
2019-02-23T15:44:21.913Z,6.43
2019-02-23T15:46:59.659Z,5.93
2019-02-23T15:49:33.902Z,5.87
2019-02-23T15:52:03.815Z,5.80
2019-02-23T15:54:32.088Z,5.73
2019-02-23T15:57:00.462Z,5.53
2019-02-23T15:59:28.972Z,5.80
2019-02-23T16:01:57.389Z,6.80
2019-02-23T16:04:25.807Z,5.93
2019-02-23T16:06:54.528Z,6.20
2019-02-23T16:09:22.918Z,5.90
2019-02-23T16:11:51.398Z,6.20
2019-02-23T16:14:19.735Z,6.77
2019-02-23T16:16:48.122Z,6.60
2019-02-23T16:19:16.482Z,5.63
2019-02-23T16:21:45.255Z,5.93
2019-02-23T16:24:13.502Z,5.83
2019-02-23T16:26:41.908Z,5.80
2019-02-23T16:29:10.239Z,5.90
2019-02-23T16:31:38.849Z,5.93
2019-02-23T16:34:07.701Z,6.03
2019-02-23T16:36:36.125Z,6.13
2019-02-23T16:39:08.126Z,6.37
2019-02-23T16:41:36.738Z,6.30
2019-02-23T16:44:05.446Z,6.60
2019-02-23T16:46:33.777Z,6.40
2019-02-23T16:49:02.399Z,6.10
2019-02-23T16:51:30.718Z,6.57
2019-02-23T16:53:58.972Z,6.67
2019-02-23T16:56:27.313Z,6.90
2019-02-23T16:58:55.626Z,7.53
2019-02-23T17:01:23.902Z,7.60
2019-02-23T17:03:52.326Z,7.53
2019-02-23T17:06:20.650Z,6.73
2019-02-23T17:08:48.958Z,6.97
2019-02-23T17:11:17.212Z,7.23
2019-02-23T17:13:45.529Z,7.20
2019-02-23T17:16:13.797Z,7.73
2019-02-23T17:18:42.142Z,7.83
2019-02-23T17:21:10.478Z,7.03
2019-02-23T17:23:38.798Z,7.10
2019-02-23T17:26:07.068Z,8.07
2019-02-23T17:28:35.557Z,7.33
2019-02-23T17:31:03.875Z,7.93
2019-02-23T17:33:32.476Z,8.50
2019-02-23T17:36:02.095Z,8.37
2019-02-23T17:38:30.547Z,9.90
2019-02-23T17:40:58.846Z,8.90
2019-02-23T17:43:27.241Z,8.40
2019-02-23T17:45:55.641Z,8.57
2019-02-23T17:48:23.935Z,9.70
2019-02-23T17:50:52.224Z,9.23
2019-02-23T17:53:20.574Z,10.77
2019-02-23T17:55:48.854Z,9.87
2019-02-23T17:58:17.252Z,10.70
2019-02-23T18:00:45.983Z,9.53
2019-02-23T18:03:14.339Z,8.97
2019-02-23T18:05:42.929Z,8.53
2019-02-23T18:08:11.238Z,8.30
2019-02-23T18:10:39.581Z,9.53
2019-02-23T18:13:08.031Z,8.87
2019-02-23T18:15:36.860Z,9.67
2019-02-23T18:18:05.859Z,9.47
2019-02-23T18:20:34.260Z,8.27
2019-02-23T18:23:02.597Z,8.90
2019-02-23T18:25:30.889Z,8.53
2019-02-23T18:27:59.340Z,9.27
2019-02-23T18:30:27.641Z,8.70
2019-02-23T18:32:56.025Z,8.37
2019-02-23T18:35:24.629Z,8.70
2019-02-23T18:37:52.938Z,8.87
2019-02-23T18:40:21.207Z,8.63
2019-02-23T18:42:49.547Z,8.30
2019-02-23T18:45:18.035Z,8.73
2019-02-23T18:47:46.428Z,9.23
2019-02-23T18:50:14.679Z,9.10
2019-02-23T18:52:42.925Z,8.80
2019-02-23T18:55:11.241Z,8.23
2019-02-23T18:57:39.481Z,8.63
2019-02-23T19:00:10.741Z,8.23
2019-02-23T19:02:39.097Z,7.67
2019-02-23T19:05:11.456Z,8.50
2019-02-23T19:07:39.747Z,8.63
2019-02-23T19:10:14.303Z,8.70
2019-02-23T19:12:42.636Z,9.60
2019-02-23T19:15:14.190Z,9.13
2019-02-23T19:17:42.444Z,9.23
2019-02-23T19:20:13.625Z,9.03
2019-02-23T19:22:42.323Z,9.60
2019-02-23T19:25:11.267Z,9.17
2019-02-23T19:27:39.505Z,9.20
2019-02-23T19:30:12.997Z,10.00
2019-02-23T19:32:41.568Z,10.17
2019-02-23T19:35:09.953Z,10.73
2019-02-23T19:37:38.304Z,10.00
2019-02-23T19:40:08.927Z,10.47
2019-02-23T19:42:37.336Z,9.20
2019-02-23T19:45:10.664Z,9.07
2019-02-23T19:47:41.416Z,10.03
2019-02-23T19:50:15.795Z,9.07
2019-02-23T19:52:44.125Z,9.83
2019-02-23T19:55:15.193Z,9.50
2019-02-23T19:57:43.443Z,10.20
2019-02-23T20:00:11.787Z,10.17
2019-02-23T20:02:40.120Z,12.47
2019-02-23T20:05:10.151Z,11.47
2019-02-23T20:07:38.418Z,12.60
2019-02-23T20:10:09.485Z,12.40
2019-02-23T20:12:37.743Z,17.93
2019-02-23T20:15:08.097Z,18.87
2019-02-23T20:17:36.790Z,20.70
2019-02-23T20:20:06.043Z,16.10
2019-02-23T20:22:34.302Z,13.73
2019-02-23T20:25:02.610Z,12.40
2019-02-23T20:27:30.870Z,12.93
2019-02-23T20:29:59.198Z,13.03
2019-02-23T20:32:27.523Z,12.27
2019-02-23T20:34:55.833Z,12.60
2019-02-23T20:37:24.154Z,12.07
2019-02-23T20:39:52.451Z,12.07
2019-02-23T20:42:21.169Z,12.17
2019-02-23T20:44:50.464Z,12.17
2019-02-23T20:47:18.792Z,11.87
2019-02-23T20:49:47.506Z,12.10
2019-02-23T20:52:15.794Z,12.13
2019-02-23T20:54:44.183Z,11.27
2019-02-23T20:57:14.033Z,11.33
2019-02-23T20:59:42.680Z,11.53
2019-02-23T21:02:10.937Z,12.60
2019-02-23T21:04:39.429Z,11.27
2019-02-23T21:07:07.715Z,11.50
2019-02-23T21:09:36.113Z,11.00
2019-02-23T21:12:04.442Z,10.97
2019-02-23T21:14:32.913Z,10.73
2019-02-23T21:17:01.220Z,10.80
2019-02-23T21:19:29.535Z,10.83
2019-02-23T21:21:58.100Z,10.37
2019-02-23T21:24:26.804Z,11.03
2019-02-23T21:26:55.098Z,10.67
2019-02-23T21:29:23.411Z,11.77
2019-02-23T21:31:52.089Z,10.70
2019-02-23T21:34:20.468Z,10.77
2019-02-23T21:36:48.723Z,9.87
2019-02-23T21:39:17.032Z,10.53
2019-02-23T21:41:45.307Z,10.70
2019-02-23T21:44:13.624Z,10.30
2019-02-23T21:46:41.912Z,9.67
2019-02-23T21:49:10.210Z,11.00
2019-02-23T21:51:38.506Z,10.50
2019-02-23T21:54:10.193Z,11.23
2019-02-23T21:56:37.566Z,10.97
2019-02-23T21:59:05.866Z,10.23
2019-02-23T22:01:34.522Z,10.77
2019-02-23T22:04:02.847Z,10.73
2019-02-23T22:06:31.201Z,9.57
2019-02-23T22:08:59.466Z,10.10
2019-02-23T22:11:28.134Z,10.03
2019-02-23T22:13:56.635Z,9.83
2019-02-23T22:16:25.261Z,9.40
2019-02-23T22:18:53.520Z,9.77
2019-02-23T22:21:21.829Z,9.50
2019-02-23T22:23:50.167Z,9.97
2019-02-23T22:26:18.536Z,10.07
2019-02-23T22:28:47.271Z,10.37
2019-02-23T22:31:15.553Z,9.80
2019-02-23T22:33:43.842Z,9.40
2019-02-23T22:36:12.221Z,9.53
2019-02-23T22:38:40.872Z,9.30
2019-02-23T22:41:09.148Z,10.00
2019-02-23T22:43:37.418Z,8.30
2019-02-23T22:46:05.964Z,9.07
2019-02-23T22:48:37.097Z,9.37
2019-02-23T22:51:05.663Z,9.10
2019-02-23T22:53:34.205Z,9.27
2019-02-23T22:56:02.954Z,9.83
2019-02-23T22:58:31.270Z,8.57
2019-02-23T23:01:01.221Z,9.00
2019-02-23T23:03:29.795Z,8.67
2019-02-23T23:05:58.101Z,9.73
2019-02-23T23:08:26.372Z,9.37
2019-02-23T23:10:54.950Z,8.87
2019-02-23T23:13:23.454Z,9.37
2019-02-23T23:15:51.735Z,10.23
2019-02-23T23:18:20.027Z,11.05
2019-02-23T23:20:48.309Z,11.22
2019-02-23T23:23:16.945Z,10.10
2019-02-23T23:25:45.366Z,9.40
2019-02-23T23:28:14.856Z,8.93
2019-02-23T23:30:43.540Z,9.30
2019-02-23T23:33:12.068Z,9.83
2019-02-23T23:35:40.634Z,8.90
2019-02-23T23:38:09.030Z,8.77
2019-02-23T23:40:38.100Z,9.17
2019-02-23T23:43:06.438Z,8.83
2019-02-23T23:45:34.685Z,9.27
2019-02-23T23:48:02.997Z,8.13
2019-02-23T23:50:31.318Z,9.95
2019-02-23T23:52:59.628Z,9.07
2019-02-23T23:55:28.520Z,8.90
2019-02-23T23:57:58.560Z,8.70
